sensor_id;sensor_type;location;lat;lon;timestamp;temperature;humidity
33673;DHT22;20011;51.510;9.942;2023-08-21T00:00:35;21.40;99.90
33673;DHT22;20011;51.510;9.942;2023-08-21T00:03:02;21.40;99.90
33673;DHT22;20011;51.510;9.942;2023-08-21T00:05:29;21.40;99.90
33673;DHT22;20011;51.510;9.942;2023-08-21T00:07:56;21.30;99.90
33673;DHT22;20011;51.510;9.942;2023-08-21T00:10:23;21.40;99.90
33673;DHT22;20011;51.510;9.942;2023-08-21T00:12:50;21.40;99.90
33673;DHT22;20011;51.510;9.942;2023-08-21T00:15:17;21.40;99.90
33673;DHT22;20011;51.510;9.942;2023-08-21T00:17:44;21.40;99.90
33673;DHT22;20011;51.510;9.942;2023-08-21T00:20:11;21.40;99.90
33673;DHT22;20011;51.510;9.942;2023-08-21T00:22:38;21.40;99.90
33673;DHT22;20011;51.510;9.942;2023-08-21T00:25:06;21.40;99.90
33673;DHT22;20011;51.510;9.942;2023-08-21T00:27:33;21.40;99.90
33673;DHT22;20011;51.510;9.942;2023-08-21T00:30:00;21.40;99.90
33673;DHT22;20011;51.510;9.942;2023-08-21T00:32:27;21.40;99.90
33673;DHT22;20011;51.510;9.942;2023-08-21T00:34:54;21.40;99.90
33673;DHT22;20011;51.510;9.942;2023-08-21T00:37:21;21.40;99.90
33673;DHT22;20011;51.510;9.942;2023-08-21T00:39:48;21.40;99.90
33673;DHT22;20011;51.510;9.942;2023-08-21T00:42:15;21.40;99.90
33673;DHT22;20011;51.510;9.942;2023-08-21T00:44:42;21.50;99.90
33673;DHT22;20011;51.510;9.942;2023-08-21T00:47:09;21.40;99.90
33673;DHT22;20011;51.510;9.942;2023-08-21T00:49:37;21.50;99.90
33673;DHT22;20011;51.510;9.942;2023-08-21T00:52:08;21.50;99.90
33673;DHT22;20011;51.510;9.942;2023-08-21T00:54:37;21.50;99.90
33673;DHT22;20011;51.510;9.942;2023-08-21T00:57:05;21.50;99.90
33673;DHT22;20011;51.510;9.942;2023-08-21T00:59:32;21.40;99.90
33673;DHT22;20011;51.510;9.942;2023-08-21T01:01:59;21.40;99.90
33673;DHT22;20011;51.510;9.942;2023-08-21T01:04:26;21.30;99.90
33673;DHT22;20011;51.510;9.942;2023-08-21T01:06:53;21.40;99.90
33673;DHT22;20011;51.510;9.942;2023-08-21T01:09:35;21.40;99.90
33673;DHT22;20011;51.510;9.942;2023-08-21T01:12:15;21.40;99.90
33673;DHT22;20011;51.510;9.942;2023-08-21T01:17:18;21.40;99.90
33673;DHT22;20011;51.510;9.942;2023-08-21T01:19:48;21.40;99.90
33673;DHT22;20011;51.510;9.942;2023-08-21T01:22:16;21.30;99.90
33673;DHT22;20011;51.510;9.942;2023-08-21T01:24:43;21.40;99.90
33673;DHT22;20011;51.510;9.942;2023-08-21T01:27:11;21.30;99.90
33673;DHT22;20011;51.510;9.942;2023-08-21T01:29:38;21.30;99.90
33673;DHT22;20011;51.510;9.942;2023-08-21T01:34:59;21.30;99.90
33673;DHT22;20011;51.510;9.942;2023-08-21T01:37:30;21.30;99.90
33673;DHT22;20011;51.510;9.942;2023-08-21T01:40:00;21.20;99.90
33673;DHT22;20011;51.510;9.942;2023-08-21T01:42:27;21.20;99.90
33673;DHT22;20011;51.510;9.942;2023-08-21T01:44:54;21.30;99.90
33673;DHT22;20011;51.510;9.942;2023-08-21T01:47:21;21.30;99.90
33673;DHT22;20011;51.510;9.942;2023-08-21T01:49:48;21.30;99.90
33673;DHT22;20011;51.510;9.942;2023-08-21T01:52:19;21.30;99.90
33673;DHT22;20011;51.510;9.942;2023-08-21T01:54:47;21.30;99.90
33673;DHT22;20011;51.510;9.942;2023-08-21T01:57:14;21.30;99.90
33673;DHT22;20011;51.510;9.942;2023-08-21T01:59:41;21.30;99.90
33673;DHT22;20011;51.510;9.942;2023-08-21T02:02:10;21.30;99.90
33673;DHT22;20011;51.510;9.942;2023-08-21T02:04:37;21.30;99.90
33673;DHT22;20011;51.510;9.942;2023-08-21T02:07:04;21.30;99.90
33673;DHT22;20011;51.510;9.942;2023-08-21T02:09:31;21.30;99.90
33673;DHT22;20011;51.510;9.942;2023-08-21T02:11:58;21.30;99.90
33673;DHT22;20011;51.510;9.942;2023-08-21T02:14:25;21.30;99.90
33673;DHT22;20011;51.510;9.942;2023-08-21T02:16:52;21.30;99.90
33673;DHT22;20011;51.510;9.942;2023-08-21T02:19:19;21.30;99.90
33673;DHT22;20011;51.510;9.942;2023-08-21T02:21:46;21.30;99.90
33673;DHT22;20011;51.510;9.942;2023-08-21T02:24:13;21.30;99.90
33673;DHT22;20011;51.510;9.942;2023-08-21T02:26:41;21.20;99.90
33673;DHT22;20011;51.510;9.942;2023-08-21T02:29:09;21.30;99.90
33673;DHT22;20011;51.510;9.942;2023-08-21T02:31:36;21.30;99.90
33673;DHT22;20011;51.510;9.942;2023-08-21T02:34:03;21.30;99.90
33673;DHT22;20011;51.510;9.942;2023-08-21T02:36:30;21.30;99.90
33673;DHT22;20011;51.510;9.942;2023-08-21T02:38:58;21.30;99.90
33673;DHT22;20011;51.510;9.942;2023-08-21T02:41:25;21.30;99.90
33673;DHT22;20011;51.510;9.942;2023-08-21T02:43:52;21.30;99.90
33673;DHT22;20011;51.510;9.942;2023-08-21T02:46:20;21.20;99.90
33673;DHT22;20011;51.510;9.942;2023-08-21T02:48:47;21.20;99.90
33673;DHT22;20011;51.510;9.942;2023-08-21T02:51:14;21.20;99.90
33673;DHT22;20011;51.510;9.942;2023-08-21T02:53:41;21.20;99.90
33673;DHT22;20011;51.510;9.942;2023-08-21T02:56:08;21.30;99.90
33673;DHT22;20011;51.510;9.942;2023-08-21T02:58:34;21.30;99.90
33673;DHT22;20011;51.510;9.942;2023-08-21T03:01:01;21.30;99.90
33673;DHT22;20011;51.510;9.942;2023-08-21T03:03:28;21.20;99.90
33673;DHT22;20011;51.510;9.942;2023-08-21T03:05:55;21.20;99.90
33673;DHT22;20011;51.510;9.942;2023-08-21T03:08:22;21.20;99.90
33673;DHT22;20011;51.510;9.942;2023-08-21T03:10:49;21.20;99.90
33673;DHT22;20011;51.510;9.942;2023-08-21T03:13:16;21.20;99.90
33673;DHT22;20011;51.510;9.942;2023-08-21T03:15:46;21.10;99.90
33673;DHT22;20011;51.510;9.942;2023-08-21T03:18:13;21.10;99.90
33673;DHT22;20011;51.510;9.942;2023-08-21T03:20:46;21.10;99.90
33673;DHT22;20011;51.510;9.942;2023-08-21T03:23:13;21.10;99.90
33673;DHT22;20011;51.510;9.942;2023-08-21T03:25:41;21.00;99.90
33673;DHT22;20011;51.510;9.942;2023-08-21T03:28:08;21.00;99.90
33673;DHT22;20011;51.510;9.942;2023-08-21T03:30:35;21.00;99.90
33673;DHT22;20011;51.510;9.942;2023-08-21T03:33:03;21.00;99.90
33673;DHT22;20011;51.510;9.942;2023-08-21T03:35:30;21.00;99.90
33673;DHT22;20011;51.510;9.942;2023-08-21T03:37:57;21.00;99.90
33673;DHT22;20011;51.510;9.942;2023-08-21T03:40:26;20.90;99.90
33673;DHT22;20011;51.510;9.942;2023-08-21T03:42:54;20.90;99.90
33673;DHT22;20011;51.510;9.942;2023-08-21T03:45:21;20.90;99.90
33673;DHT22;20011;51.510;9.942;2023-08-21T03:47:48;20.90;99.90
33673;DHT22;20011;51.510;9.942;2023-08-21T03:50:18;20.90;99.90
33673;DHT22;20011;51.510;9.942;2023-08-21T03:52:45;20.90;99.90
33673;DHT22;20011;51.510;9.942;2023-08-21T03:55:12;20.90;99.90
33673;DHT22;20011;51.510;9.942;2023-08-21T03:57:41;20.90;99.90
33673;DHT22;20011;51.510;9.942;2023-08-21T04:00:09;20.80;99.90
33673;DHT22;20011;51.510;9.942;2023-08-21T04:02:42;20.80;99.90
33673;DHT22;20011;51.510;9.942;2023-08-21T04:05:09;20.80;99.90
33673;DHT22;20011;51.510;9.942;2023-08-21T04:07:38;20.80;99.90
33673;DHT22;20011;51.510;9.942;2023-08-21T04:10:05;20.80;99.90
33673;DHT22;20011;51.510;9.942;2023-08-21T04:12:32;20.70;99.90
33673;DHT22;20011;51.510;9.942;2023-08-21T04:14:59;20.70;99.90
33673;DHT22;20011;51.510;9.942;2023-08-21T04:17:26;20.70;99.90
33673;DHT22;20011;51.510;9.942;2023-08-21T04:19:53;20.70;99.90
33673;DHT22;20011;51.510;9.942;2023-08-21T04:22:20;20.70;99.90
33673;DHT22;20011;51.510;9.942;2023-08-21T04:24:47;20.70;99.90
33673;DHT22;20011;51.510;9.942;2023-08-21T04:27:14;20.70;99.90
33673;DHT22;20011;51.510;9.942;2023-08-21T04:29:41;20.70;99.90
33673;DHT22;20011;51.510;9.942;2023-08-21T04:32:08;20.60;99.90
33673;DHT22;20011;51.510;9.942;2023-08-21T04:34:35;20.60;99.90
33673;DHT22;20011;51.510;9.942;2023-08-21T04:37:02;20.60;99.90
33673;DHT22;20011;51.510;9.942;2023-08-21T04:39:31;20.60;99.90
33673;DHT22;20011;51.510;9.942;2023-08-21T04:41:58;20.60;99.90
33673;DHT22;20011;51.510;9.942;2023-08-21T04:44:26;20.60;99.90
33673;DHT22;20011;51.510;9.942;2023-08-21T04:46:52;20.50;99.90
33673;DHT22;20011;51.510;9.942;2023-08-21T04:49:19;20.50;99.90
33673;DHT22;20011;51.510;9.942;2023-08-21T04:51:47;20.50;99.90
33673;DHT22;20011;51.510;9.942;2023-08-21T04:54:14;20.50;99.90
33673;DHT22;20011;51.510;9.942;2023-08-21T04:56:41;20.50;99.90
33673;DHT22;20011;51.510;9.942;2023-08-21T04:59:11;20.50;99.90
33673;DHT22;20011;51.510;9.942;2023-08-21T05:01:38;20.50;99.90
33673;DHT22;20011;51.510;9.942;2023-08-21T05:04:06;20.50;99.90
33673;DHT22;20011;51.510;9.942;2023-08-21T05:06:33;20.50;99.90
33673;DHT22;20011;51.510;9.942;2023-08-21T05:09:00;20.50;99.90
33673;DHT22;20011;51.510;9.942;2023-08-21T05:11:28;20.50;99.90
33673;DHT22;20011;51.510;9.942;2023-08-21T05:13:54;20.50;99.90
33673;DHT22;20011;51.510;9.942;2023-08-21T05:16:22;20.50;99.90
33673;DHT22;20011;51.510;9.942;2023-08-21T05:18:50;20.40;99.90
33673;DHT22;20011;51.510;9.942;2023-08-21T05:21:17;20.40;99.90
33673;DHT22;20011;51.510;9.942;2023-08-21T05:23:44;20.40;99.90
33673;DHT22;20011;51.510;9.942;2023-08-21T05:26:11;20.40;99.90
33673;DHT22;20011;51.510;9.942;2023-08-21T05:28:38;20.50;99.90
33673;DHT22;20011;51.510;9.942;2023-08-21T05:31:05;20.50;99.90
33673;DHT22;20011;51.510;9.942;2023-08-21T05:33:44;20.50;99.90
33673;DHT22;20011;51.510;9.942;2023-08-21T05:36:13;20.50;99.90
33673;DHT22;20011;51.510;9.942;2023-08-21T05:38:40;20.50;99.90
33673;DHT22;20011;51.510;9.942;2023-08-21T05:41:07;20.50;99.90
33673;DHT22;20011;51.510;9.942;2023-08-21T05:43:34;20.50;99.90
33673;DHT22;20011;51.510;9.942;2023-08-21T05:46:02;20.50;99.90
33673;DHT22;20011;51.510;9.942;2023-08-21T05:48:29;20.50;99.90
33673;DHT22;20011;51.510;9.942;2023-08-21T05:50:55;20.50;99.90
33673;DHT22;20011;51.510;9.942;2023-08-21T05:53:24;20.50;99.90
33673;DHT22;20011;51.510;9.942;2023-08-21T05:55:53;20.60;99.90
33673;DHT22;20011;51.510;9.942;2023-08-21T05:58:20;20.60;99.90
33673;DHT22;20011;51.510;9.942;2023-08-21T06:00:47;20.60;99.90
33673;DHT22;20011;51.510;9.942;2023-08-21T06:03:14;20.60;99.90
33673;DHT22;20011;51.510;9.942;2023-08-21T06:06:05;20.60;99.90
33673;DHT22;20011;51.510;9.942;2023-08-21T06:08:32;20.60;99.90
33673;DHT22;20011;51.510;9.942;2023-08-21T06:10:59;20.70;99.90
33673;DHT22;20011;51.510;9.942;2023-08-21T06:13:26;20.70;99.90
33673;DHT22;20011;51.510;9.942;2023-08-21T06:15:54;20.70;99.90
33673;DHT22;20011;51.510;9.942;2023-08-21T06:18:22;20.70;99.90
33673;DHT22;20011;51.510;9.942;2023-08-21T06:20:50;20.70;99.90
33673;DHT22;20011;51.510;9.942;2023-08-21T06:23:20;20.70;99.90
33673;DHT22;20011;51.510;9.942;2023-08-21T06:25:51;20.70;99.90
33673;DHT22;20011;51.510;9.942;2023-08-21T06:28:20;20.00;99.90
33673;DHT22;20011;51.510;9.942;2023-08-21T06:30:47;20.70;99.90
33673;DHT22;20011;51.510;9.942;2023-08-21T06:33:20;20.70;99.90
33673;DHT22;20011;51.510;9.942;2023-08-21T06:35:47;20.70;99.90
33673;DHT22;20011;51.510;9.942;2023-08-21T06:38:15;20.80;99.90
33673;DHT22;20011;51.510;9.942;2023-08-21T06:40:45;20.80;99.90
33673;DHT22;20011;51.510;9.942;2023-08-21T06:43:12;20.80;99.90
33673;DHT22;20011;51.510;9.942;2023-08-21T06:45:44;20.80;99.90
33673;DHT22;20011;51.510;9.942;2023-08-21T06:48:11;20.80;99.90
33673;DHT22;20011;51.510;9.942;2023-08-21T06:50:38;20.80;99.90
33673;DHT22;20011;51.510;9.942;2023-08-21T06:53:05;20.80;99.90
33673;DHT22;20011;51.510;9.942;2023-08-21T06:55:32;20.80;99.90
33673;DHT22;20011;51.510;9.942;2023-08-21T06:57:59;20.90;99.90
33673;DHT22;20011;51.510;9.942;2023-08-21T07:00:26;20.90;99.90
33673;DHT22;20011;51.510;9.942;2023-08-21T07:02:53;20.90;99.90
33673;DHT22;20011;51.510;9.942;2023-08-21T07:05:20;20.90;99.90
33673;DHT22;20011;51.510;9.942;2023-08-21T07:07:47;20.90;99.90
33673;DHT22;20011;51.510;9.942;2023-08-21T07:10:14;20.90;99.90
33673;DHT22;20011;51.510;9.942;2023-08-21T07:12:41;21.00;99.90
33673;DHT22;20011;51.510;9.942;2023-08-21T07:15:09;21.00;99.90
33673;DHT22;20011;51.510;9.942;2023-08-21T07:17:36;21.00;99.90
33673;DHT22;20011;51.510;9.942;2023-08-21T07:20:03;21.00;99.90
33673;DHT22;20011;51.510;9.942;2023-08-21T07:22:30;21.00;99.90
33673;DHT22;20011;51.510;9.942;2023-08-21T07:24:58;21.20;99.90
33673;DHT22;20011;51.510;9.942;2023-08-21T07:27:27;21.00;99.90
33673;DHT22;20011;51.510;9.942;2023-08-21T07:29:54;21.10;99.90
33673;DHT22;20011;51.510;9.942;2023-08-21T07:32:21;21.10;99.90
33673;DHT22;20011;51.510;9.942;2023-08-21T07:34:52;21.10;99.90
33673;DHT22;20011;51.510;9.942;2023-08-21T07:37:20;21.10;99.90
33673;DHT22;20011;51.510;9.942;2023-08-21T07:39:47;21.20;99.90
33673;DHT22;20011;51.510;9.942;2023-08-21T07:42:14;21.20;99.90
33673;DHT22;20011;51.510;9.942;2023-08-21T07:44:41;21.20;99.90
33673;DHT22;20011;51.510;9.942;2023-08-21T07:47:08;21.20;99.90
33673;DHT22;20011;51.510;9.942;2023-08-21T07:49:35;21.20;99.90
33673;DHT22;20011;51.510;9.942;2023-08-21T07:52:03;21.20;99.90
33673;DHT22;20011;51.510;9.942;2023-08-21T07:54:31;21.20;99.90
33673;DHT22;20011;51.510;9.942;2023-08-21T07:56:57;21.30;99.90
33673;DHT22;20011;51.510;9.942;2023-08-21T07:59:24;21.30;99.90
33673;DHT22;20011;51.510;9.942;2023-08-21T08:01:52;21.30;99.90
33673;DHT22;20011;51.510;9.942;2023-08-21T08:04:19;21.30;99.90
33673;DHT22;20011;51.510;9.942;2023-08-21T08:06:46;21.40;99.90
33673;DHT22;20011;51.510;9.942;2023-08-21T08:09:13;21.30;99.90
33673;DHT22;20011;51.510;9.942;2023-08-21T08:11:40;21.40;99.90
33673;DHT22;20011;51.510;9.942;2023-08-21T08:14:07;21.40;99.90
33673;DHT22;20011;51.510;9.942;2023-08-21T08:16:34;21.40;99.90
33673;DHT22;20011;51.510;9.942;2023-08-21T08:19:01;21.50;99.90
33673;DHT22;20011;51.510;9.942;2023-08-21T08:21:28;21.40;99.90
33673;DHT22;20011;51.510;9.942;2023-08-21T08:23:56;21.50;99.90
33673;DHT22;20011;51.510;9.942;2023-08-21T08:26:24;21.50;99.90
33673;DHT22;20011;51.510;9.942;2023-08-21T08:28:50;21.50;99.90
33673;DHT22;20011;51.510;9.942;2023-08-21T08:31:18;21.50;99.90
33673;DHT22;20011;51.510;9.942;2023-08-21T08:33:45;21.60;99.90
33673;DHT22;20011;51.510;9.942;2023-08-21T08:36:12;21.40;99.90
33673;DHT22;20011;51.510;9.942;2023-08-21T08:38:39;22.10;99.90
33673;DHT22;20011;51.510;9.942;2023-08-21T08:41:13;22.30;99.90
33673;DHT22;20011;51.510;9.942;2023-08-21T08:43:41;22.40;99.90
33673;DHT22;20011;51.510;9.942;2023-08-21T08:46:08;22.60;99.90
33673;DHT22;20011;51.510;9.942;2023-08-21T08:48:37;22.70;99.90
33673;DHT22;20011;51.510;9.942;2023-08-21T08:51:05;22.80;99.90
33673;DHT22;20011;51.510;9.942;2023-08-21T08:53:33;22.90;99.90
33673;DHT22;20011;51.510;9.942;2023-08-21T08:56:00;23.00;99.90
33673;DHT22;20011;51.510;9.942;2023-08-21T08:58:29;23.10;99.90
33673;DHT22;20011;51.510;9.942;2023-08-21T09:00:56;23.10;99.90
33673;DHT22;20011;51.510;9.942;2023-08-21T09:03:23;23.20;99.90
33673;DHT22;20011;51.510;9.942;2023-08-21T09:05:50;23.20;99.90
33673;DHT22;20011;51.510;9.942;2023-08-21T09:08:17;23.20;99.90
33673;DHT22;20011;51.510;9.942;2023-08-21T09:10:44;23.30;99.90
33673;DHT22;20011;51.510;9.942;2023-08-21T09:13:16;23.30;99.90
33673;DHT22;20011;51.510;9.942;2023-08-21T09:15:48;23.40;99.90
33673;DHT22;20011;51.510;9.942;2023-08-21T09:18:15;23.40;99.90
33673;DHT22;20011;51.510;9.942;2023-08-21T09:20:43;23.40;99.90
33673;DHT22;20011;51.510;9.942;2023-08-21T09:23:14;23.40;99.90
33673;DHT22;20011;51.510;9.942;2023-08-21T09:25:47;23.40;99.90
33673;DHT22;20011;51.510;9.942;2023-08-21T09:28:18;23.40;99.90
33673;DHT22;20011;51.510;9.942;2023-08-21T09:30:53;23.30;99.90
33673;DHT22;20011;51.510;9.942;2023-08-21T09:33:22;23.40;99.90
33673;DHT22;20011;51.510;9.942;2023-08-21T09:35:54;23.40;99.90
33673;DHT22;20011;51.510;9.942;2023-08-21T09:38:22;23.30;99.90
33673;DHT22;20011;51.510;9.942;2023-08-21T09:40:53;23.40;99.90
33673;DHT22;20011;51.510;9.942;2023-08-21T09:43:22;23.50;99.90
33673;DHT22;20011;51.510;9.942;2023-08-21T09:45:54;23.50;99.90
33673;DHT22;20011;51.510;9.942;2023-08-21T09:48:23;23.50;99.90
33673;DHT22;20011;51.510;9.942;2023-08-21T09:50:51;23.50;99.90
33673;DHT22;20011;51.510;9.942;2023-08-21T09:53:26;23.60;99.90
33673;DHT22;20011;51.510;9.942;2023-08-21T09:55:55;23.80;99.90
33673;DHT22;20011;51.510;9.942;2023-08-21T09:58:22;23.70;99.90
33673;DHT22;20011;51.510;9.942;2023-08-21T10:00:49;23.70;99.90
33673;DHT22;20011;51.510;9.942;2023-08-21T10:03:21;23.70;99.90
33673;DHT22;20011;51.510;9.942;2023-08-21T10:05:48;23.70;99.90
33673;DHT22;20011;51.510;9.942;2023-08-21T10:08:23;23.70;99.90
33673;DHT22;20011;51.510;9.942;2023-08-21T10:10:51;23.70;99.90
33673;DHT22;20011;51.510;9.942;2023-08-21T10:13:19;23.70;99.90
33673;DHT22;20011;51.510;9.942;2023-08-21T10:15:47;23.60;99.90
33673;DHT22;20011;51.510;9.942;2023-08-21T10:18:24;23.70;99.90
33673;DHT22;20011;51.510;9.942;2023-08-21T10:20:52;23.70;99.90
33673;DHT22;20011;51.510;9.942;2023-08-21T10:23:27;23.70;99.90
33673;DHT22;20011;51.510;9.942;2023-08-21T10:25:59;23.70;99.90
33673;DHT22;20011;51.510;9.942;2023-08-21T10:28:51;23.70;99.90
33673;DHT22;20011;51.510;9.942;2023-08-21T10:33:58;23.80;99.90
33673;DHT22;20011;51.510;9.942;2023-08-21T10:36:38;23.70;99.90
33673;DHT22;20011;51.510;9.942;2023-08-21T10:39:54;23.70;99.90
33673;DHT22;20011;51.510;9.942;2023-08-21T10:42:38;23.70;99.90
33673;DHT22;20011;51.510;9.942;2023-08-21T10:45:11;23.70;99.90
33673;DHT22;20011;51.510;9.942;2023-08-21T10:47:38;23.70;99.90
33673;DHT22;20011;51.510;9.942;2023-08-21T10:50:09;23.70;99.90
33673;DHT22;20011;51.510;9.942;2023-08-21T10:52:40;23.60;99.90
33673;DHT22;20011;51.510;9.942;2023-08-21T10:55:09;23.70;99.90
33673;DHT22;20011;51.510;9.942;2023-08-21T10:57:36;23.80;99.90
33673;DHT22;20011;51.510;9.942;2023-08-21T11:00:07;24.10;99.90
33673;DHT22;20011;51.510;9.942;2023-08-21T11:02:39;24.10;99.90
33673;DHT22;20011;51.510;9.942;2023-08-21T11:05:08;24.10;99.90
33673;DHT22;20011;51.510;9.942;2023-08-21T11:07:43;24.20;99.90
33673;DHT22;20011;51.510;9.942;2023-08-21T11:10:15;24.20;99.90
33673;DHT22;20011;51.510;9.942;2023-08-21T11:12:53;24.30;99.90
33673;DHT22;20011;51.510;9.942;2023-08-21T11:15:23;24.20;99.90
33673;DHT22;20011;51.510;9.942;2023-08-21T11:17:58;24.20;99.90
33673;DHT22;20011;51.510;9.942;2023-08-21T11:20:34;24.10;99.90
33673;DHT22;20011;51.510;9.942;2023-08-21T11:23:06;24.10;99.90
33673;DHT22;20011;51.510;9.942;2023-08-21T11:25:39;24.10;99.90
33673;DHT22;20011;51.510;9.942;2023-08-21T11:28:07;24.30;99.90
33673;DHT22;20011;51.510;9.942;2023-08-21T11:30:35;24.20;99.90
33673;DHT22;20011;51.510;9.942;2023-08-21T11:33:09;24.30;99.90
33673;DHT22;20011;51.510;9.942;2023-08-21T11:35:40;24.40;99.90
33673;DHT22;20011;51.510;9.942;2023-08-21T11:38:18;24.30;99.90
33673;DHT22;20011;51.510;9.942;2023-08-21T11:40:59;24.30;99.90
33673;DHT22;20011;51.510;9.942;2023-08-21T11:43:40;24.20;99.90
33673;DHT22;20011;51.510;9.942;2023-08-21T11:46:09;24.30;99.90
33673;DHT22;20011;51.510;9.942;2023-08-21T11:48:41;24.40;99.90
33673;DHT22;20011;51.510;9.942;2023-08-21T11:51:08;24.50;99.90
33673;DHT22;20011;51.510;9.942;2023-08-21T11:53:38;24.50;99.90
33673;DHT22;20011;51.510;9.942;2023-08-21T11:56:13;24.60;99.90
33673;DHT22;20011;51.510;9.942;2023-08-21T11:58:42;24.60;99.90
33673;DHT22;20011;51.510;9.942;2023-08-21T12:01:09;24.60;99.90
33673;DHT22;20011;51.510;9.942;2023-08-21T12:03:40;24.60;99.90
33673;DHT22;20011;51.510;9.942;2023-08-21T12:06:08;24.70;99.90
33673;DHT22;20011;51.510;9.942;2023-08-21T12:08:36;24.60;99.90
33673;DHT22;20011;51.510;9.942;2023-08-21T12:11:04;24.70;99.90
33673;DHT22;20011;51.510;9.942;2023-08-21T12:13:31;24.60;99.90
33673;DHT22;20011;51.510;9.942;2023-08-21T12:16:02;24.60;99.90
33673;DHT22;20011;51.510;9.942;2023-08-21T12:18:30;24.50;99.90
33673;DHT22;20011;51.510;9.942;2023-08-21T12:20:56;24.40;99.90
33673;DHT22;20011;51.510;9.942;2023-08-21T12:23:24;24.40;99.90
33673;DHT22;20011;51.510;9.942;2023-08-21T12:25:51;24.50;99.90
33673;DHT22;20011;51.510;9.942;2023-08-21T12:28:18;24.50;99.90
33673;DHT22;20011;51.510;9.942;2023-08-21T12:30:45;24.60;99.90
33673;DHT22;20011;51.510;9.942;2023-08-21T12:33:13;24.40;99.90
33673;DHT22;20011;51.510;9.942;2023-08-21T12:35:50;24.30;99.90
33673;DHT22;20011;51.510;9.942;2023-08-21T12:38:17;24.30;99.90
33673;DHT22;20011;51.510;9.942;2023-08-21T12:40:44;24.20;99.90
33673;DHT22;20011;51.510;9.942;2023-08-21T12:43:11;24.30;99.90
33673;DHT22;20011;51.510;9.942;2023-08-21T12:45:38;24.30;99.90
33673;DHT22;20011;51.510;9.942;2023-08-21T12:48:05;24.50;99.90
33673;DHT22;20011;51.510;9.942;2023-08-21T12:50:32;24.70;99.90
33673;DHT22;20011;51.510;9.942;2023-08-21T12:52:59;24.70;99.90
33673;DHT22;20011;51.510;9.942;2023-08-21T12:55:27;24.70;99.90
33673;DHT22;20011;51.510;9.942;2023-08-21T12:57:56;24.60;99.90
33673;DHT22;20011;51.510;9.942;2023-08-21T13:00:23;24.50;99.90
33673;DHT22;20011;51.510;9.942;2023-08-21T13:02:50;24.50;99.90
33673;DHT22;20011;51.510;9.942;2023-08-21T13:05:17;24.40;99.90
33673;DHT22;20011;51.510;9.942;2023-08-21T13:07:44;24.50;99.90
33673;DHT22;20011;51.510;9.942;2023-08-21T13:10:11;24.60;99.90
33673;DHT22;20011;51.510;9.942;2023-08-21T13:12:38;24.60;99.90
33673;DHT22;20011;51.510;9.942;2023-08-21T13:15:06;24.70;99.90
33673;DHT22;20011;51.510;9.942;2023-08-21T13:17:34;24.70;99.90
33673;DHT22;20011;51.510;9.942;2023-08-21T13:20:02;24.60;99.90
33673;DHT22;20011;51.510;9.942;2023-08-21T13:22:47;24.60;99.90
33673;DHT22;20011;51.510;9.942;2023-08-21T13:25:16;24.50;99.90
33673;DHT22;20011;51.510;9.942;2023-08-21T13:27:43;24.60;99.90
33673;DHT22;20011;51.510;9.942;2023-08-21T13:30:11;24.50;99.90
33673;DHT22;20011;51.510;9.942;2023-08-21T13:32:38;24.50;99.90
33673;DHT22;20011;51.510;9.942;2023-08-21T13:35:06;24.50;99.90
33673;DHT22;20011;51.510;9.942;2023-08-21T13:37:36;24.60;99.90
33673;DHT22;20011;51.510;9.942;2023-08-21T13:40:04;24.50;99.90
33673;DHT22;20011;51.510;9.942;2023-08-21T13:42:46;24.60;99.90
33673;DHT22;20011;51.510;9.942;2023-08-21T13:45:15;24.50;99.90
33673;DHT22;20011;51.510;9.942;2023-08-21T13:47:44;24.50;99.90
33673;DHT22;20011;51.510;9.942;2023-08-21T13:50:17;24.50;99.90
33673;DHT22;20011;51.510;9.942;2023-08-21T13:52:45;24.30;99.90
33673;DHT22;20011;51.510;9.942;2023-08-21T13:55:13;24.30;99.90
33673;DHT22;20011;51.510;9.942;2023-08-21T13:57:41;24.30;99.90
33673;DHT22;20011;51.510;9.942;2023-08-21T14:00:09;24.30;99.90
33673;DHT22;20011;51.510;9.942;2023-08-21T14:02:40;24.20;99.90
33673;DHT22;20011;51.510;9.942;2023-08-21T14:05:08;24.20;99.90
33673;DHT22;20011;51.510;9.942;2023-08-21T14:07:37;24.20;99.90
33673;DHT22;20011;51.510;9.942;2023-08-21T14:10:05;24.30;99.90
33673;DHT22;20011;51.510;9.942;2023-08-21T14:12:32;24.30;99.90
33673;DHT22;20011;51.510;9.942;2023-08-21T14:14:59;24.30;99.90
33673;DHT22;20011;51.510;9.942;2023-08-21T14:17:27;24.20;99.90
33673;DHT22;20011;51.510;9.942;2023-08-21T14:19:55;24.10;99.90
33673;DHT22;20011;51.510;9.942;2023-08-21T14:22:22;24.10;99.90
33673;DHT22;20011;51.510;9.942;2023-08-21T14:24:49;24.10;99.90
33673;DHT22;20011;51.510;9.942;2023-08-21T14:27:17;24.20;99.90
33673;DHT22;20011;51.510;9.942;2023-08-21T14:29:44;24.30;99.90
33673;DHT22;20011;51.510;9.942;2023-08-21T14:32:11;24.30;99.90
33673;DHT22;20011;51.510;9.942;2023-08-21T14:34:38;24.50;99.90
33673;DHT22;20011;51.510;9.942;2023-08-21T14:37:06;24.50;99.90
33673;DHT22;20011;51.510;9.942;2023-08-21T14:39:33;24.70;99.90
33673;DHT22;20011;51.510;9.942;2023-08-21T14:42:00;24.70;99.90
33673;DHT22;20011;51.510;9.942;2023-08-21T14:44:28;24.70;99.90
33673;DHT22;20011;51.510;9.942;2023-08-21T14:46:55;24.80;99.90
33673;DHT22;20011;51.510;9.942;2023-08-21T14:49:28;24.90;99.90
33673;DHT22;20011;51.510;9.942;2023-08-21T14:51:55;24.80;99.90
33673;DHT22;20011;51.510;9.942;2023-08-21T14:54:22;24.80;99.90
33673;DHT22;20011;51.510;9.942;2023-08-21T14:56:49;24.70;99.90
33673;DHT22;20011;51.510;9.942;2023-08-21T14:59:16;24.80;99.90
33673;DHT22;20011;51.510;9.942;2023-08-21T15:01:43;24.80;99.90
33673;DHT22;20011;51.510;9.942;2023-08-21T15:04:10;24.80;99.90
33673;DHT22;20011;51.510;9.942;2023-08-21T15:06:38;24.90;99.90
33673;DHT22;20011;51.510;9.942;2023-08-21T15:09:06;25.10;99.90
33673;DHT22;20011;51.510;9.942;2023-08-21T15:11:34;25.30;99.90
33673;DHT22;20011;51.510;9.942;2023-08-21T15:14:02;25.40;99.90
33673;DHT22;20011;51.510;9.942;2023-08-21T15:16:30;25.50;99.90
33673;DHT22;20011;51.510;9.942;2023-08-21T15:18:58;25.50;99.90
33673;DHT22;20011;51.510;9.942;2023-08-21T15:21:25;25.40;99.90
33673;DHT22;20011;51.510;9.942;2023-08-21T15:23:52;25.50;99.90
33673;DHT22;20011;51.510;9.942;2023-08-21T15:26:20;25.50;99.90
33673;DHT22;20011;51.510;9.942;2023-08-21T15:28:48;25.40;99.90
33673;DHT22;20011;51.510;9.942;2023-08-21T15:31:18;25.40;99.90
33673;DHT22;20011;51.510;9.942;2023-08-21T15:33:46;25.30;99.90
33673;DHT22;20011;51.510;9.942;2023-08-21T15:36:14;25.30;99.90
33673;DHT22;20011;51.510;9.942;2023-08-21T15:38:41;25.30;99.90
33673;DHT22;20011;51.510;9.942;2023-08-21T15:41:08;25.30;99.90
33673;DHT22;20011;51.510;9.942;2023-08-21T15:43:35;25.10;99.90
33673;DHT22;20011;51.510;9.942;2023-08-21T15:46:05;25.10;99.90